Terminal Aerodrome Forecast
Issued by NWS Rapid City, SD

Home | Current Version | Previous Version | Graphics & Text | Print | Product List | Glossary Off
Versions: 1 2 3 4 5 6 7 8 9 10 11 12 13 14 15

000
FTUS43 KUNR 231121
TAFRAP
TAF
KRAP 231121Z 2312/2412 17012KT P6SM BKN200 WS020/23030KT
     FM231400 18014KT P6SM BKN200
     FM240300 36014KT P6SM BKN120=

USA.gov is the U.S. government's official web portal to all federal, state and local government web resources and services.